Time;durP1;ratioP1;P1;durP2;ratioP2;P2;SDS_P1;SDS_P2;PMS_P1;PMS_P2;Temp;Humidity;BMP_temperature;BMP_pressure;BME280_temperature;BME280_humidity;BME280_pressure;Samples;Min_cycle;Max_cycle;Signal;HPM_P1;HPM_P2
2021/07/16 00:01:15;;;;;;;12.02;7.18;;;;;;;24.64;59.88;101481.38;6126678;28;20232;-58
2021/07/16 00:04:38;;;;;;;12.02;6.63;;;;;;;24.41;60.52;101475.56;6111307;28;20228;-56
2021/07/16 00:07:59;;;;;;;15.43;8.10;;;;;;;24.32;60.35;101481.41;6118227;28;20319;-58
2021/07/16 00:11:20;;;;;;;12.95;6.82;;;;;;;24.42;60.76;101487.06;6107548;28;20235;-57
2021/07/16 00:14:41;;;;;;;15.93;8.95;;;;;;;24.12;60.72;101480.72;6114625;28;20231;-58
2021/07/16 00:18:02;;;;;;;19.88;7.88;;;;;;;23.97;61.60;101484.22;6113678;28;20267;-58
2021/07/16 00:21:24;;;;;;;12.20;6.78;;;;;;;24.60;59.55;101491.34;6103221;28;20374;-58
2021/07/16 00:24:45;;;;;;;15.65;9.50;;;;;;;24.18;60.30;101492.81;6093335;28;20306;-58
2021/07/16 00:28:07;;;;;;;10.55;8.32;;;;;;;24.18;60.21;101488.34;6105571;28;20263;-58
2021/07/16 00:31:30;;;;;;;17.15;7.72;;;;;;;24.37;59.51;101492.66;6107516;28;20260;-58
2021/07/16 00:34:51;;;;;;;10.57;7.05;;;;;;;24.43;59.31;101494.97;6105638;28;20232;-58
2021/07/16 00:38:13;;;;;;;11.98;7.13;;;;;;;24.25;59.74;101498.66;6111278;28;20236;-57
2021/07/16 00:41:34;;;;;;;11.27;6.68;;;;;;;24.31;59.42;101500.97;6106134;28;20611;-59
2021/07/16 00:44:57;;;;;;;15.88;7.57;;;;;;;24.56;58.41;101495.13;6098945;28;20530;-59
2021/07/16 00:48:19;;;;;;;14.35;8.38;;;;;;;23.76;60.60;101492.38;6106946;28;20267;-59
2021/07/16 00:51:41;;;;;;;16.88;7.75;;;;;;;24.05;60.01;101497.09;6112669;28;20333;-58
2021/07/16 00:55:04;;;;;;;10.77;5.70;;;;;;;23.80;60.92;101485.13;6116049;28;20240;-57
2021/07/16 00:58:25;;;;;;;11.25;6.15;;;;;;;23.88;60.15;101490.03;6101008;28;20255;-58
2021/07/16 01:01:47;;;;;;;12.60;6.07;;;;;;;24.24;58.89;101483.66;6103694;28;20251;-59
2021/07/16 01:05:11;;;;;;;16.00;6.32;;;;;;;24.12;58.77;101493.16;6107299;28;20248;-57
2021/07/16 01:08:32;;;;;;;12.30;5.82;;;;;;;24.06;59.56;101494.38;6101473;28;20300;-57
2021/07/16 01:11:55;;;;;;;14.85;5.68;;;;;;;23.80;59.79;101489.59;6092286;28;20318;-58
2021/07/16 01:15:16;;;;;;;11.70;6.15;;;;;;;23.88;60.28;101503.34;6103158;28;20256;-58
2021/07/16 01:18:37;;;;;;;7.57;4.95;;;;;;;23.36;60.89;101502.47;6103890;28;20314;-58
2021/07/16 01:22:01;;;;;;;9.55;5.38;;;;;;;23.50;60.62;101488.47;6105740;28;20241;-58
2021/07/16 01:25:25;;;;;;;13.93;5.90;;;;;;;23.40;60.72;101503.19;6111221;28;20233;-57
2021/07/16 01:28:46;;;;;;;11.52;5.60;;;;;;;23.45;60.69;101495.81;6105260;28;20252;-57
2021/07/16 01:32:08;;;;;;;14.07;5.72;;;;;;;23.40;61.05;101505.84;6106088;28;20628;-58
2021/07/16 01:35:30;;;;;;;11.13;6.35;;;;;;;23.06;61.42;101510.22;6110039;28;20228;-59
2021/07/16 01:38:51;;;;;;;10.68;5.60;;;;;;;23.33;60.65;101515.91;6110269;28;20576;-59
2021/07/16 01:42:14;;;;;;;14.05;6.65;;;;;;;23.34;60.30;101512.34;6103250;28;20540;-58
2021/07/16 01:45:38;;;;;;;15.02;6.15;;;;;;;22.95;61.27;101518.72;6103793;28;20389;-58
2021/07/16 01:49:00;;;;;;;10.27;5.57;;;;;;;23.02;61.19;101515.75;6112497;28;20227;-58
2021/07/16 01:52:21;;;;;;;11.02;5.90;;;;;;;23.10;61.09;101516.25;6105216;28;20268;-56
2021/07/16 01:55:42;;;;;;;12.55;5.57;;;;;;;22.71;61.92;101525.22;6115144;28;20224;-58
2021/07/16 01:59:05;;;;;;;13.95;6.07;;;;;;;22.99;61.39;101519.38;6111134;28;20239;-58
2021/07/16 02:02:26;;;;;;;13.73;5.38;;;;;;;23.37;60.10;101520.13;6107830;28;20255;-59
2021/07/16 02:05:48;;;;;;;8.93;4.60;;;;;;;23.28;60.27;101528.56;6115301;28;20239;-55
2021/07/16 02:09:09;;;;;;;11.80;5.28;;;;;;;23.26;60.14;101521.63;6105066;28;20232;-57
2021/07/16 02:12:30;;;;;;;16.02;5.85;;;;;;;22.80;61.52;101527.44;6106048;28;20256;-58
2021/07/16 02:15:54;;;;;;;13.65;4.78;;;;;;;22.94;61.37;101516.13;6107884;28;20240;-57
2021/07/16 02:19:15;;;;;;;9.85;4.68;;;;;;;23.00;60.92;101516.66;6110139;28;20231;-58
2021/07/16 02:22:36;;;;;;;14.30;6.18;;;;;;;22.99;60.02;101525.59;6100758;28;20263;-59
2021/07/16 02:25:57;;;;;;;10.23;5.03;;;;;;;22.71;60.64;101535.84;6109912;28;20611;-60
2021/07/16 02:29:18;;;;;;;18.50;5.25;;;;;;;22.96;59.60;101535.50;6102783;28;20225;-56
2021/07/16 02:32:40;;;;;;;12.70;5.43;;;;;;;22.81;61.24;101539.75;6116017;28;20235;-58
2021/07/16 02:36:02;;;;;;;11.77;5.45;;;;;;;22.94;60.06;101548.00;6112640;28;20606;-57
2021/07/16 02:39:23;;;;;;;14.63;5.60;;;;;;;22.45;61.46;101548.59;6110887;28;20231;-57
2021/07/16 02:42:44;;;;;;;13.20;5.03;;;;;;;22.79;60.07;101558.41;6097005;28;20232;-58
2021/07/16 02:46:05;;;;;;;12.05;4.72;;;;;;;22.61;60.70;101549.56;6106698;28;20252;-58
2021/07/16 02:49:27;;;;;;;14.75;5.68;;;;;;;22.80;61.12;101559.28;6102074;28;20244;-58
2021/07/16 02:52:48;;;;;;;10.07;4.72;;;;;;;23.17;58.84;101560.16;6109895;28;20651;-56
2021/07/16 02:56:09;;;;;;;9.93;4.90;;;;;;;22.60;61.10;101550.50;6110308;28;20227;-58
2021/07/16 02:59:30;;;;;;;11.65;4.97;;;;;;;22.45;61.10;101561.84;6102936;28;20263;-58
2021/07/16 03:02:52;;;;;;;7.47;4.85;;;;;;;22.51;61.45;101564.22;6105712;28;20235;-59
2021/07/16 03:06:14;;;;;;;10.88;6.18;;;;;;;22.23;61.60;101568.09;6118487;28;20224;-59
2021/07/16 03:09:35;;;;;;;15.30;6.28;;;;;;;22.34;61.37;101564.13;6103641;28;20224;-59
2021/07/16 03:12:57;;;;;;;8.80;5.15;;;;;;;22.51;61.54;101564.22;6104543;28;20235;-61
2021/07/16 03:16:17;;;;;;;16.92;9.43;;;;;;;22.36;61.03;101567.56;6110209;28;20662;-59
2021/07/16 03:19:38;;;;;;;10.15;6.13;;;;;;;22.58;60.82;101568.28;6101035;28;20247;-58
2021/07/16 03:23:01;;;;;;;12.20;5.80;;;;;;;22.89;59.70;101576.56;6110556;28;20232;-57
2021/07/16 03:26:22;;;;;;;14.02;5.40;;;;;;;22.40;61.00;101569.16;6115312;28;20224;-58
2021/07/16 03:29:43;;;;;;;14.30;6.25;;;;;;;22.50;60.67;101583.69;6099738;28;20228;-58
2021/07/16 03:33:05;;;;;;;11.75;5.78;;;;;;;22.36;61.06;101580.84;6105455;28;20236;-57
2021/07/16 03:36:26;;;;;;;14.15;7.10;;;;;;;22.44;60.63;101578.69;6096141;29;20244;-57
2021/07/16 03:39:50;;;;;;;14.40;6.80;;;;;;;22.49;60.44;101571.38;6105411;28;20259;-58
2021/07/16 03:43:11;;;;;;;11.48;6.32;;;;;;;22.53;60.30;101570.31;6112101;28;20625;-59
2021/07/16 03:46:32;;;;;;;13.50;6.45;;;;;;;22.41;60.41;101570.84;6099785;28;20224;-58
2021/07/16 03:49:53;;;;;;;17.63;7.32;;;;;;;21.97;61.72;101573.75;6108650;28;20311;-59
2021/07/16 03:53:14;;;;;;;14.30;7.10;;;;;;;21.96;61.91;101578.16;6104119;28;20256;-58
2021/07/16 03:56:36;;;;;;;9.82;5.88;;;;;;;22.09;61.81;101575.84;6095228;28;20323;-58
2021/07/16 04:00:01;;;;;;;15.48;6.28;;;;;;;22.31;60.68;101589.00;6113727;28;20231;-59
2021/07/16 04:03:22;;;;;;;14.45;7.70;;;;;;;22.37;60.40;101587.84;6109218;28;20227;-57
2021/07/16 04:06:50;;;;;;;16.90;9.55;;;;;;;22.48;60.17;101593.53;6101017;28;20236;-55
2021/07/16 04:10:12;;;;;;;13.63;7.25;;;;;;;22.51;60.48;101588.09;6102038;28;20244;-59
2021/07/16 04:13:34;;;;;;;25.48;9.38;;;;;;;22.87;59.32;101583.75;6114509;28;20248;-59
2021/07/16 04:16:55;;;;;;;16.33;6.88;;;;;;;22.65;59.71;101590.09;6106851;28;20243;-59
2021/07/16 04:20:16;;;;;;;20.35;9.77;;;;;;;22.67;59.67;101585.56;6106274;28;20237;-59
2021/07/16 04:23:38;;;;;;;15.10;8.85;;;;;;;22.94;58.97;101593.13;6115195;28;20232;-59
2021/07/16 04:26:59;;;;;;;10.80;6.45;;;;;;;22.58;59.69;101602.78;6113021;28;20248;-57
2021/07/16 04:30:23;;;;;;;19.48;11.43;;;;;;;22.52;60.07;101603.06;6110094;28;20307;-58
2021/07/16 04:33:44;;;;;;;10.85;6.45;;;;;;;22.49;60.05;101602.34;6100514;28;20244;-58
2021/07/16 04:37:06;;;;;;;16.05;7.25;;;;;;;22.48;59.71;101612.09;6118642;28;20240;-58
2021/07/16 04:40:28;;;;;;;15.55;6.63;;;;;;;22.87;59.15;101616.47;6109237;28;20801;-57
2021/07/16 04:43:49;;;;;;;17.05;7.22;;;;;;;22.72;59.27;101617.19;6114934;28;20322;-58
2021/07/16 04:47:11;;;;;;;11.10;5.50;;;;;;;22.99;58.45;101615.00;6113231;28;20510;-58
2021/07/16 04:50:32;;;;;;;14.77;6.63;;;;;;;22.79;59.09;101613.31;6104869;28;20224;-58
2021/07/16 04:53:54;;;;;;;12.70;5.53;;;;;;;22.92;59.04;101619.78;6111158;28;20327;-58
2021/07/16 04:57:14;;;;;;;12.82;5.93;;;;;;;23.14;58.40;101618.75;6113153;28;20283;-59
2021/07/16 05:00:35;;;;;;;10.68;6.03;;;;;;;23.51;57.18;101619.56;6112420;28;20239;-58
2021/07/16 05:03:58;;;;;;;11.80;6.55;;;;;;;23.45;56.69;101612.75;6109042;28;20521;-58
2021/07/16 05:07:19;;;;;;;17.23;7.63;;;;;;;23.24;57.82;101620.00;6105989;28;20316;-59
2021/07/16 05:10:39;;;;;;;15.65;7.85;;;;;;;22.99;58.40;101621.19;6111650;28;20235;-58
2021/07/16 05:14:01;;;;;;;15.02;7.82;;;;;;;22.85;58.79;101621.00;6115804;28;20534;-59
2021/07/16 05:17:22;;;;;;;14.45;6.50;;;;;;;22.49;59.89;101627.13;6097986;28;20232;-60
2021/07/16 05:20:45;;;;;;;10.48;5.45;;;;;;;23.53;56.70;101625.66;6110301;28;20228;-57
2021/07/16 05:24:06;;;;;;;10.93;5.75;;;;;;;23.17;57.64;101630.09;6101602;28;20240;-58
2021/07/16 05:27:26;;;;;;;19.45;10.38;;;;;;;23.24;57.62;101620.00;6113301;28;20228;-59
2021/07/16 05:30:48;;;;;;;10.55;6.38;;;;;;;23.86;56.07;101624.91;6103996;28;20255;-58
2021/07/16 05:34:09;;;;;;;14.55;7.00;;;;;;;23.55;55.89;101626.44;6115948;28;20240;-58
2021/07/16 05:37:31;;;;;;;8.90;5.63;;;;;;;23.56;56.89;101641.47;6095371;28;20229;-58
2021/07/16 05:40:53;;;;;;;16.15;6.30;;;;;;;23.04;57.91;101639.59;6106354;28;20776;-60
2021/07/16 05:44:14;;;;;;;14.45;6.20;;;;;;;23.44;56.95;101647.38;6102480;28;20229;-56
2021/07/16 05:47:35;;;;;;;17.33;6.13;;;;;;;23.49;57.00;101653.34;6110892;28;20626;-57
2021/07/16 05:50:56;;;;;;;15.18;6.30;;;;;;;23.81;56.43;101656.19;6105045;28;20239;-57
2021/07/16 05:54:19;;;;;;;16.70;6.70;;;;;;;23.49;56.98;101650.69;6099773;28;20232;-59
2021/07/16 05:57:40;;;;;;;14.45;5.85;;;;;;;23.38;57.36;101660.06;6107243;28;20228;-59
2021/07/16 06:01:01;;;;;;;14.52;6.90;;;;;;;23.86;55.75;101659.47;6106362;28;20236;-58
2021/07/16 06:04:22;;;;;;;16.42;6.43;;;;;;;23.82;56.00;101650.78;6110442;28;20942;-60
2021/07/16 06:07:44;;;;;;;14.98;6.07;;;;;;;23.00;57.92;101659.25;6101804;28;20236;-60
2021/07/16 06:11:06;;;;;;;21.63;7.03;;;;;;;23.14;57.64;101662.09;6109132;28;20240;-60
2021/07/16 06:14:29;;;;;;;14.73;6.63;;;;;;;22.71;58.55;101655.31;6108410;28;20231;-61
2021/07/16 06:17:50;;;;;;;11.45;5.22;;;;;;;22.60;59.64;101655.78;6100582;28;20875;-59
2021/07/16 06:21:11;;;;;;;18.70;6.93;;;;;;;22.88;58.93;101666.00;6108835;28;20626;-59
2021/07/16 06:24:33;;;;;;;13.82;7.25;;;;;;;22.96;58.68;101674.47;6098087;28;20233;-60
2021/07/16 06:27:55;;;;;;;13.40;6.63;;;;;;;23.22;57.71;101675.03;6112840;28;20236;-58
2021/07/16 06:31:17;;;;;;;20.30;7.65;;;;;;;23.30;57.76;101675.53;6112297;28;20264;-60
2021/07/16 06:34:38;;;;;;;14.85;7.80;;;;;;;23.54;57.34;101680.56;6111362;28;20256;-60
2021/07/16 06:37:59;;;;;;;13.32;6.07;;;;;;;23.21;58.47;101673.31;6102685;28;20239;-59
2021/07/16 06:41:20;;;;;;;14.82;6.13;;;;;;;23.98;56.02;101677.44;6106487;28;20522;-60
2021/07/16 06:44:42;;;;;;;15.10;9.88;;;;;;;24.11;55.48;101678.53;6113910;28;20224;-55
2021/07/16 06:48:05;;;;;;;16.23;7.57;;;;;;;24.01;55.42;101682.63;6107742;28;20243;-58
2021/07/16 06:51:26;;;;;;;16.88;7.15;;;;;;;23.82;56.40;101679.19;6116749;28;20236;-56
2021/07/16 06:54:46;;;;;;;12.02;6.05;;;;;;;24.37;55.05;101692.28;6101979;28;20733;-58
2021/07/16 06:58:08;;;;;;;15.55;6.45;;;;;;;24.55;54.89;101688.66;6104635;28;20235;-58
2021/07/16 07:01:30;;;;;;;15.38;6.13;;;;;;;24.64;54.29;101694.41;6107844;28;20330;-57
2021/07/16 07:04:51;;;;;;;18.48;7.88;;;;;;;24.83;53.89;101694.28;6109621;28;20248;-59
2021/07/16 07:08:12;;;;;;;15.57;7.47;;;;;;;25.02;53.08;101702.09;6108304;28;20486;-58
2021/07/16 07:11:33;;;;;;;12.40;5.90;;;;;;;24.25;54.81;101703.56;6099945;28;24835;-60
2021/07/16 07:14:54;;;;;;;9.70;4.90;;;;;;;24.65;54.45;101712.13;6105418;28;20243;-59
2021/07/16 07:18:16;;;;;;;13.30;6.80;;;;;;;24.47;54.73;101714.81;6109655;28;20232;-58
2021/07/16 07:21:37;;;;;;;14.30;6.32;;;;;;;24.49;55.11;101718.25;6105364;28;20239;-58
2021/07/16 07:24:58;;;;;;;13.10;6.70;;;;;;;24.87;54.50;101717.13;6108752;28;20236;-58
2021/07/16 07:28:19;;;;;;;12.20;6.13;;;;;;;25.45;52.40;101713.00;6110159;28;20330;-60
2021/07/16 07:31:40;;;;;;;13.00;6.80;;;;;;;25.73;51.43;101715.78;6114045;28;20602;-60
2021/07/16 07:35:03;;;;;;;11.32;5.60;;;;;;;25.95;51.18;101714.56;6118493;28;20228;-57
2021/07/16 07:38:26;;;;;;;12.00;5.90;;;;;;;25.51;52.45;101723.31;6112768;28;20228;-58
2021/07/16 07:41:47;;;;;;;15.07;7.05;;;;;;;25.86;51.56;101725.72;6109734;28;20228;-57
2021/07/16 07:45:09;;;;;;;10.48;5.97;;;;;;;26.11;51.22;101728.72;6110173;28;20236;-57
2021/07/16 07:48:30;;;;;;;10.00;6.20;;;;;;;26.56;49.95;101728.66;6109329;28;20521;-56
2021/07/16 07:51:52;;;;;;;13.15;7.28;;;;;;;26.65;49.99;101725.41;6110383;28;20236;-57
2021/07/16 07:55:14;;;;;;;15.00;7.32;;;;;;;26.22;51.23;101724.53;6117549;28;20503;-60
2021/07/16 07:58:35;;;;;;;14.27;7.15;;;;;;;26.62;50.48;101720.28;6113367;28;20692;-57
2021/07/16 08:01:56;;;;;;;17.67;8.63;;;;;;;26.78;49.93;101714.81;6115866;28;20232;-59
2021/07/16 08:05:17;;;;;;;11.95;6.38;;;;;;;27.06;48.70;101721.06;6108803;28;20231;-58
2021/07/16 08:08:39;;;;;;;13.73;7.23;;;;;;;26.39;50.85;101740.38;6108670;28;20821;-58
2021/07/16 08:12:03;;;;;;;15.32;7.47;;;;;;;26.49;50.18;101746.84;6090008;28;20239;-58
2021/07/16 08:15:24;;;;;;;16.50;6.03;;;;;;;26.62;50.63;101754.13;6114124;28;20350;-60
2021/07/16 08:18:45;;;;;;;17.90;6.72;;;;;;;27.01;49.37;101748.09;6108265;28;20219;-59
2021/07/16 08:22:06;;;;;;;12.90;5.90;;;;;;;26.74;49.61;101744.50;6115371;28;20641;-60
2021/07/16 08:25:30;;;;;;;11.52;5.45;;;;;;;26.91;49.74;101755.84;6108784;28;20276;-60
2021/07/16 08:28:51;;;;;;;14.63;7.10;;;;;;;27.24;48.79;101745.78;6105470;28;20314;-59
2021/07/16 08:32:13;;;;;;;17.88;9.88;;;;;;;27.04;49.23;101739.88;6099083;28;20267;-60
2021/07/16 08:35:33;;;;;;;14.10;6.95;;;;;;;26.59;50.67;101740.97;6105014;28;20237;-60
2021/07/16 08:38:54;;;;;;;11.43;5.85;;;;;;;27.19;49.03;101738.03;6113426;28;20235;-59
2021/07/16 08:42:17;;;;;;;11.20;5.90;;;;;;;27.17;48.48;101744.44;6111212;28;20235;-60
2021/07/16 08:45:38;;;;;;;12.80;5.93;;;;;;;26.92;48.99;101736.16;6112806;28;20325;-60
2021/07/16 08:49:00;;;;;;;13.55;6.38;;;;;;;26.97;49.60;101737.69;6108881;28;20232;-57
2021/07/16 08:52:23;;;;;;;11.30;5.85;;;;;;;27.01;49.78;101744.56;6102742;28;20268;-59
2021/07/16 08:55:44;;;;;;;13.48;6.15;;;;;;;27.00;48.61;101740.19;6106046;28;20257;-58
2021/07/16 08:59:08;;;;;;;12.85;5.82;;;;;;;27.10;49.41;101739.50;6105292;28;20232;-60
2021/07/16 09:02:31;;;;;;;17.52;6.18;;;;;;;27.01;49.06;101740.09;6112984;28;20232;-60
2021/07/16 09:05:53;;;;;;;12.98;6.63;;;;;;;27.68;47.55;101750.91;6117896;28;20236;-60
2021/07/16 09:09:15;;;;;;;12.32;5.50;;;;;;;27.59;47.59;101751.50;6110088;28;20244;-61
2021/07/16 09:12:37;;;;;;;13.65;6.53;;;;;;;27.65;46.02;101742.22;6102061;28;20504;-61
2021/07/16 09:16:00;;;;;;;7.07;4.75;;;;;;;27.95;46.54;101741.13;6106447;28;20328;-61
2021/07/16 09:19:27;;;;;;;11.25;5.82;;;;;;;28.22;45.59;101749.09;6105061;28;20232;-60
2021/07/16 09:23:07;;;;;;;13.82;5.88;;;;;;;27.70;46.12;101748.09;6108894;28;20224;-59
2021/07/16 09:26:29;;;;;;;12.50;5.55;;;;;;;27.53;47.09;101751.91;6100571;28;20242;-59
2021/07/16 09:29:50;;;;;;;8.18;4.93;;;;;;;27.61;46.86;101754.94;6110247;28;20634;-59
2021/07/16 09:33:16;;;;;;;12.18;7.10;;;;;;;27.76;46.98;101754.84;6107812;28;20307;-58
2021/07/16 09:36:39;;;;;;;13.80;6.20;;;;;;;27.24;48.02;101762.69;6097915;28;20295;-59
2021/07/16 09:40:00;;;;;;;10.93;5.78;;;;;;;27.63;47.34;101758.34;6107953;28;20251;-57
2021/07/16 09:43:24;;;;;;;10.32;5.70;;;;;;;27.16;48.25;101764.97;6099364;28;20236;-58
2021/07/16 09:47:06;;;;;;;10.60;5.35;;;;;;;27.55;47.75;101766.03;6110155;28;20738;-57
2021/07/16 09:50:34;;;;;;;11.50;6.35;;;;;;;27.37;48.01;101760.06;6114202;28;20611;-58
2021/07/16 09:53:58;;;;;;;12.40;5.47;;;;;;;27.53;47.18;101761.72;6110828;28;20235;-58
2021/07/16 09:57:38;;;;;;;8.80;5.97;;;;;;;28.19;46.30;101765.34;6114974;28;20960;-59
2021/07/16 10:00:59;;;;;;;8.63;5.45;;;;;;;28.46;45.40;101760.78;6114441;28;20228;-59
2021/07/16 10:04:21;;;;;;;8.65;5.38;;;;;;;28.90;45.43;101760.44;6115658;28;20326;-58
2021/07/16 10:07:44;;;;;;;10.25;5.60;;;;;;;28.96;45.08;101750.09;6107541;28;20236;-59
2021/07/16 10:11:07;;;;;;;13.13;6.55;;;;;;;29.07;44.62;101743.97;6104959;28;20714;-60
2021/07/16 10:14:28;;;;;;;14.00;6.72;;;;;;;28.59;45.12;101741.19;6110031;28;20236;-60
2021/07/16 10:17:50;;;;;;;11.55;5.45;;;;;;;29.00;44.18;101740.03;6105648;28;20231;-60
2021/07/16 10:21:11;;;;;;;8.93;5.78;;;;;;;28.80;45.42;101744.16;6110303;28;20393;-59
2021/07/16 10:24:36;;;;;;;15.40;6.18;;;;;;;30.30;43.04;101747.31;6109233;28;20492;-59
2021/07/16 10:27:57;;;;;;;13.82;5.88;;;;;;;30.31;42.45;101751.75;6104330;28;20271;-58
2021/07/16 10:31:37;;;;;;;10.13;5.80;;;;;;;30.22;43.74;101751.50;6104069;28;20236;-58
2021/07/16 10:35:14;;;;;;;7.10;5.00;;;;;;;30.40;43.18;101762.66;6107085;28;20236;-58
2021/07/16 10:38:35;;;;;;;14.95;6.60;;;;;;;29.49;44.32;101765.09;6099757;28;20323;-57
2021/07/16 10:41:57;;;;;;;14.10;6.10;;;;;;;30.51;43.22;101756.41;6099945;28;20605;-60
2021/07/16 10:45:32;;;;;;;14.55;6.25;;;;;;;30.50;42.69;101764.63;6095855;28;20227;-57
2021/07/16 10:48:53;;;;;;;13.85;5.65;;;;;;;29.06;45.33;101769.06;6109685;28;20235;-58
2021/07/16 10:52:15;;;;;;;12.50;5.63;;;;;;;30.39;42.73;101768.13;6109198;28;20497;-59
2021/07/16 10:56:02;;;;;;;12.48;5.82;;;;;;;29.88;44.71;101777.38;6109219;28;20251;-59
2021/07/16 10:59:45;;;;;;;10.55;6.07;;;;;;;30.02;44.01;101785.22;6111867;28;20239;-58
2021/07/16 11:03:07;;;;;;;15.30;5.75;;;;;;;30.51;42.63;101793.19;6117862;28;20585;-59
2021/07/16 11:06:49;;;;;;;11.13;6.90;;;;;;;29.83;43.27;101787.59;6106853;28;20228;-60
2021/07/16 11:10:45;;;;;;;14.85;6.50;;;;;;;30.08;43.63;101791.97;6113844;28;20231;-59
2021/07/16 11:14:06;;;;;;;10.65;6.25;;;;;;;30.46;42.70;101787.31;6098896;28;20244;-56
2021/07/16 11:17:36;;;;;;;10.23;5.30;;;;;;;30.14;43.10;101787.97;6109470;28;20240;-56
2021/07/16 11:20:57;;;;;;;11.60;6.00;;;;;;;30.77;42.15;101785.75;6112242;28;20260;-57
2021/07/16 11:24:22;;;;;;;11.13;5.90;;;;;;;31.16;41.14;101787.09;6111183;28;20239;-57
2021/07/16 11:27:43;;;;;;;11.70;5.57;;;;;;;31.39;41.17;101792.44;6114936;28;20322;-60
2021/07/16 11:31:04;;;;;;;7.68;6.22;;;;;;;30.72;41.82;101796.88;6112052;28;20239;-58
2021/07/16 11:34:26;;;;;;;15.07;6.55;;;;;;;30.78;41.51;101791.00;6105548;28;20264;-55
2021/07/16 11:37:49;;;;;;;12.02;5.25;;;;;;;30.96;41.19;101788.72;6100600;28;20268;-57
2021/07/16 11:41:10;;;;;;;9.95;5.28;;;;;;;30.63;42.21;101800.28;6102627;28;20227;-56
2021/07/16 11:44:33;;;;;;;8.52;5.18;;;;;;;31.25;41.37;101792.69;6109695;28;20228;-56
2021/07/16 11:47:55;;;;;;;10.38;5.57;;;;;;;31.80;39.77;101790.84;6096316;28;20236;-57
2021/07/16 11:51:27;;;;;;;8.63;5.15;;;;;;;31.58;40.05;101789.97;6108473;28;20646;-59
2021/07/16 11:54:51;;;;;;;9.65;5.70;;;;;;;31.85;40.53;101794.00;6102802;28;20247;-58
2021/07/16 11:58:13;;;;;;;13.63;6.80;;;;;;;31.63;41.10;101796.78;6115344;28;21089;-60
2021/07/16 12:01:34;;;;;;;12.55;6.78;;;;;;;31.13;41.53;101800.78;6108349;28;20240;-59
2021/07/16 12:04:58;;;;;;;10.38;4.95;;;;;;;31.47;41.13;101791.84;6097986;28;20756;-58
2021/07/16 12:08:24;;;;;;;13.48;7.45;;;;;;;31.76;40.36;101797.47;6103386;28;20231;-59
2021/07/16 12:11:45;;;;;;;11.70;5.47;;;;;;;31.28;41.47;101792.47;6108838;28;20311;-61
2021/07/16 12:15:09;;;;;;;15.07;6.80;;;;;;;30.83;41.98;101792.50;6106248;28;20601;-58
2021/07/16 12:18:31;;;;;;;11.10;6.57;;;;;;;31.29;41.82;101802.22;6109781;28;20224;-60
2021/07/16 12:21:52;;;;;;;11.52;6.28;;;;;;;31.33;41.08;101799.16;6116265;28;20319;-60
2021/07/16 12:25:15;;;;;;;11.32;5.80;;;;;;;31.03;42.26;101807.88;6110727;28;20749;-58
2021/07/16 12:28:36;;;;;;;10.27;6.22;;;;;;;32.12;40.09;101798.06;6110938;28;20330;-59
2021/07/16 12:31:57;;;;;;;11.23;6.15;;;;;;;32.30;39.20;101804.56;6099282;28;20229;-58
2021/07/16 12:35:22;;;;;;;11.88;6.65;;;;;;;32.31;40.10;101808.97;6107036;28;20251;-58
2021/07/16 12:38:46;;;;;;;9.40;5.45;;;;;;;31.89;39.86;101808.94;6114513;28;20640;-58
2021/07/16 12:42:17;;;;;;;9.15;4.90;;;;;;;32.33;39.83;101817.75;6103641;28;20323;-57
2021/07/16 12:45:47;;;;;;;11.00;6.40;;;;;;;31.99;40.00;101817.94;6109172;28;21060;-58
2021/07/16 12:49:09;;;;;;;11.00;6.18;;;;;;;32.41;39.34;101821.66;6104516;28;20894;-57
2021/07/16 12:52:30;;;;;;;13.85;6.78;;;;;;;32.42;38.33;101820.69;6108353;28;20259;-61
2021/07/16 12:55:50;;;;;;;10.95;6.03;;;;;;;32.72;38.41;101820.69;6106669;28;20251;-59
2021/07/16 12:59:26;;;;;;;14.10;7.22;;;;;;;31.55;39.96;101817.13;6111223;28;20272;-59
2021/07/16 13:02:48;;;;;;;9.13;6.00;;;;;;;32.51;39.31;101827.94;6108036;28;20837;-58
2021/07/16 13:06:28;;;;;;;11.27;5.55;;;;;;;32.74;38.04;101820.56;6106686;28;20606;-56
2021/07/16 13:09:49;;;;;;;12.50;5.88;;;;;;;33.82;36.91;101825.31;6111251;28;20864;-57
2021/07/16 13:13:10;;;;;;;11.77;5.55;;;;;;;35.23;34.13;101824.56;6124293;28;20255;-57
2021/07/16 13:16:32;;;;;;;15.07;6.63;;;;;;;34.23;35.02;101825.16;6109175;28;20231;-58
2021/07/16 13:19:56;;;;;;;12.27;6.40;;;;;;;35.84;32.93;101822.97;6097361;28;20232;-53
2021/07/16 13:23:17;;;;;;;10.52;4.88;;;;;;;35.65;33.41;101820.41;6108371;28;20704;-49
2021/07/16 13:26:37;;;;;;;15.95;7.72;;;;;;;35.72;32.75;101824.22;6105306;28;20231;-51
2021/07/16 13:29:58;;;;;;;13.60;5.93;;;;;;;37.35;31.11;101826.28;6110321;28;20227;-49
2021/07/16 13:33:20;;;;;;;16.13;6.50;;;;;;;35.09;33.89;101816.88;6107802;28;20248;-51
2021/07/16 13:36:41;;;;;;;15.77;6.22;;;;;;;35.52;34.19;101822.63;6102566;28;20255;-47
2021/07/16 13:40:03;;;;;;;16.52;8.73;;;;;;;35.84;33.08;101828.41;6109412;28;20527;-48
2021/07/16 13:43:24;;;;;;;16.00;7.75;;;;;;;35.82;33.11;101819.56;6109253;28;20232;-49
2021/07/16 13:46:46;;;;;;;19.88;6.88;;;;;;;34.21;35.79;101833.41;6112352;28;20338;-50
2021/07/16 13:50:09;;;;;;;15.45;7.18;;;;;;;34.43;35.42;101825.97;6111393;28;20239;-46
2021/07/16 13:53:31;;;;;;;14.02;6.43;;;;;;;35.45;33.64;101820.56;6116611;28;20228;-49
2021/07/16 13:56:54;;;;;;;14.63;7.00;;;;;;;35.24;33.96;101825.41;6100709;28;20259;-52
2021/07/16 14:00:16;;;;;;;15.25;5.95;;;;;;;35.43;33.74;101819.00;6112115;28;20713;-49
2021/07/16 14:03:37;;;;;;;17.27;6.93;;;;;;;33.90;36.29;101825.44;6112518;28;20811;-53
2021/07/16 14:06:59;;;;;;;16.05;7.03;;;;;;;33.48;37.21;101839.19;6103173;28;20507;-52
2021/07/16 14:10:21;;;;;;;11.48;5.95;;;;;;;33.60;36.72;101830.94;6109002;28;20364;-51
2021/07/16 14:13:42;;;;;;;15.48;6.93;;;;;;;32.92;38.44;101836.97;6098496;28;20232;-48
2021/07/16 14:17:03;;;;;;;11.77;6.60;;;;;;;33.48;37.31;101833.78;6105108;28;20512;-52
2021/07/16 14:20:24;;;;;;;12.40;5.95;;;;;;;32.75;38.54;101842.03;6108890;28;20246;-52
2021/07/16 14:23:47;;;;;;;19.73;7.53;;;;;;;32.82;38.50;101838.78;6109183;28;20236;-49
2021/07/16 14:27:07;;;;;;;12.48;5.65;;;;;;;33.26;37.90;101837.53;6103991;28;20235;-51
2021/07/16 14:30:29;;;;;;;13.55;6.40;;;;;;;32.32;38.76;101832.25;6116850;28;20236;-52
2021/07/16 14:33:51;;;;;;;12.43;6.22;;;;;;;32.78;38.69;101831.94;6101967;28;20240;-51
2021/07/16 14:37:12;;;;;;;15.15;6.75;;;;;;;32.96;38.65;101827.63;6112348;28;20610;-49
2021/07/16 14:40:34;;;;;;;11.07;5.70;;;;;;;32.47;38.65;101826.50;6110241;28;20352;-51
2021/07/16 14:43:55;;;;;;;12.93;7.00;;;;;;;31.63;39.74;101829.94;6093747;28;22027;-49
2021/07/16 14:47:16;;;;;;;14.38;6.70;;;;;;;31.42;40.55;101831.69;6113085;28;20235;-53
2021/07/16 14:50:37;;;;;;;12.73;6.20;;;;;;;32.08;38.82;101829.78;6102996;28;20244;-49
2021/07/16 14:53:58;;;;;;;15.52;6.15;;;;;;;31.15;39.99;101816.81;6108289;28;20227;-49
2021/07/16 14:57:21;;;;;;;11.90;5.88;;;;;;;31.17;40.68;101833.66;6108955;28;20243;-48
2021/07/16 15:00:42;;;;;;;11.60;4.72;;;;;;;31.91;40.22;101824.94;6105561;28;20248;-48
2021/07/16 15:04:02;;;;;;;15.07;5.70;;;;;;;31.72;39.25;101831.03;6111379;28;20259;-48
2021/07/16 15:07:23;;;;;;;13.10;5.30;;;;;;;31.75;39.54;101836.16;6107456;28;20232;-52
2021/07/16 15:10:44;;;;;;;13.25;5.50;;;;;;;30.98;40.54;101835.16;6113492;28;20235;-48
2021/07/16 15:14:07;;;;;;;23.23;10.57;;;;;;;30.99;39.93;101841.41;6109147;28;20244;-47
2021/07/16 15:17:27;;;;;;;13.75;7.57;;;;;;;31.92;39.52;101838.28;6111627;28;20259;-50
2021/07/16 15:20:50;;;;;;;14.98;6.57;;;;;;;32.64;38.61;101836.72;6114083;28;20276;-49
2021/07/16 15:24:13;;;;;;;14.15;10.60;;;;;;;32.28;38.16;101830.81;6114904;28;20594;-48
2021/07/16 15:27:33;;;;;;;12.98;5.75;;;;;;;31.36;39.43;101839.25;6100798;28;20232;-51
2021/07/16 15:30:56;;;;;;;11.60;5.35;;;;;;;31.62;38.80;101840.84;6112632;28;20499;-50